Time;durP1;ratioP1;P1;durP2;ratioP2;P2;SDS_P1;SDS_P2;PMS_P1;PMS_P2;Temp;Humidity;BMP_temperature;BMP_pressure;BME280_temperature;BME280_humidity;BME280_pressure;Samples;Min_cycle;Max_cycle;Signal;HPM_P1;HPM_P2
2023/10/06 00:00:53;;;;;;;11.20;5.57;;;;;;;;;;5071746;28;20242;-74
2023/10/06 00:03:20;;;;;;;8.77;5.63;;;;;;;;;;5071113;28;20577;-73
2023/10/06 00:05:53;;;;;;;11.43;5.70;;;;;;;;;;5071816;28;20198;-73
2023/10/06 00:08:21;;;;;;;15.33;5.60;;;;;;;;;;5071609;28;20247;-73
2023/10/06 00:10:51;;;;;;;11.10;6.30;;;;;;;;;;5071778;28;20211;-73
2023/10/06 00:13:24;;;;;;;14.73;7.20;;;;;;;;;;5071124;28;20216;-74
2023/10/06 00:15:51;;;;;;;9.50;5.67;;;;;;;;;;5071328;28;20592;-73
2023/10/06 00:18:20;;;;;;;9.20;5.63;;;;;;;;;;5045422;28;20232;-74
2023/10/06 00:20:48;;;;;;;10.80;5.10;;;;;;;;;;5071360;28;20223;-74
2023/10/06 00:23:21;;;;;;;8.43;5.03;;;;;;;;;;5045175;28;20201;-74
2023/10/06 00:25:52;;;;;;;13.73;7.17;;;;;;;;;;5071528;28;20202;-73
2023/10/06 00:28:21;;;;;;;9.53;5.07;;;;;;;;;;5071706;28;20260;-73
2023/10/06 00:30:55;;;;;;;12.17;5.47;;;;;;;;;;5071509;28;20197;-73
2023/10/06 00:33:22;;;;;;;8.10;5.53;;;;;;;;;;5071065;28;20232;-74
2023/10/06 00:35:50;;;;;;;13.90;5.90;;;;;;;;;;5070037;28;20216;-73
2023/10/06 00:38:17;;;;;;;10.70;5.23;;;;;;;;;;5070952;28;20258;-74
2023/10/06 00:40:51;;;;;;;10.37;5.40;;;;;;;;;;5070711;28;20207;-73
2023/10/06 00:43:36;;;;;;;11.93;6.27;;;;;;;;;;5070986;28;20204;-73
2023/10/06 00:46:06;;;;;;;10.47;6.77;;;;;;;;;;5046980;28;20236;-74
2023/10/06 00:48:34;;;;;;;12.53;6.43;;;;;;;;;;5071168;28;20232;-73
2023/10/06 00:51:04;;;;;;;10.00;5.67;;;;;;;;;;5071030;28;20272;-73
2023/10/06 00:53:35;;;;;;;9.17;6.20;;;;;;;;;;5070446;28;20225;-73
2023/10/06 00:56:08;;;;;;;9.67;6.30;;;;;;;;;;5071182;28;20236;-73
2023/10/06 00:58:41;;;;;;;12.57;5.53;;;;;;;;;;5070967;28;20205;-73
2023/10/06 01:01:08;;;;;;;7.87;5.40;;;;;;;;;;5071071;28;20237;-73
2023/10/06 01:03:39;;;;;;;13.93;5.87;;;;;;;;;;5070606;28;20259;-73
2023/10/06 01:06:12;;;;;;;13.53;5.63;;;;;;;;;;5070694;28;20274;-73
2023/10/06 01:08:45;;;;;;;10.63;7.03;;;;;;;;;;5070736;28;20278;-73
2023/10/06 01:11:17;;;;;;;11.97;6.67;;;;;;;;;;5069718;28;20743;-74
2023/10/06 01:13:55;;;;;;;9.57;6.37;;;;;;;;;;5070529;28;20237;-73
2023/10/06 01:16:34;;;;;;;9.53;6.27;;;;;;;;;;5070356;28;20258;-73
2023/10/06 01:19:14;;;;;;;13.00;5.77;;;;;;;;;;5071189;28;20289;-73
2023/10/06 01:21:41;;;;;;;9.40;6.23;;;;;;;;;;5070496;28;20266;-73
2023/10/06 01:24:13;;;;;;;11.37;7.00;;;;;;;;;;5070521;28;20232;-74
2023/10/06 01:26:42;;;;;;;18.90;7.23;;;;;;;;;;5069170;28;20583;-73
2023/10/06 01:29:11;;;;;;;20.60;7.90;;;;;;;;;;5070635;28;20253;-73
2023/10/06 01:31:40;;;;;;;12.87;6.37;;;;;;;;;;5070441;28;20200;-73
2023/10/06 01:34:10;;;;;;;12.37;5.93;;;;;;;;;;5070098;28;20334;-73
2023/10/06 01:36:37;;;;;;;13.73;6.03;;;;;;;;;;5070278;28;20201;-73
2023/10/06 01:39:05;;;;;;;9.27;6.37;;;;;;;;;;5070078;28;20209;-73
2023/10/06 01:41:35;;;;;;;15.73;6.63;;;;;;;;;;5070596;28;20288;-73
2023/10/06 01:44:10;;;;;;;14.73;6.13;;;;;;;;;;5070140;28;20247;-74
2023/10/06 01:46:37;;;;;;;10.80;6.50;;;;;;;;;;5070671;28;20200;-75
2023/10/06 01:49:10;;;;;;;11.33;5.63;;;;;;;;;;5070005;28;20236;-74
2023/10/06 01:51:38;;;;;;;9.13;5.10;;;;;;;;;;5069924;28;20205;-74
2023/10/06 01:54:07;;;;;;;9.40;5.53;;;;;;;;;;5070506;28;20208;-71
2023/10/06 01:56:35;;;;;;;11.03;5.63;;;;;;;;;;5069537;28;20237;-72
2023/10/06 01:59:05;;;;;;;10.90;5.70;;;;;;;;;;5070850;28;20254;-72
2023/10/06 02:01:32;;;;;;;14.13;6.57;;;;;;;;;;5069179;28;20212;-72
2023/10/06 02:03:59;;;;;;;10.90;6.47;;;;;;;;;;5070439;28;20197;-71
2023/10/06 02:06:26;;;;;;;14.67;7.20;;;;;;;;;;5069723;28;20197;-73
2023/10/06 02:08:54;;;;;;;7.33;5.87;;;;;;;;;;5070215;28;20772;-73
2023/10/06 02:11:27;;;;;;;11.63;6.07;;;;;;;;;;5069633;28;20204;-72
2023/10/06 02:13:55;;;;;;;12.83;6.30;;;;;;;;;;5070252;28;20296;-73
2023/10/06 02:16:26;;;;;;;12.50;6.00;;;;;;;;;;5069636;28;20202;-72
2023/10/06 02:18:53;;;;;;;10.57;6.20;;;;;;;;;;5070327;28;20209;-72
2023/10/06 02:21:24;;;;;;;8.60;6.17;;;;;;;;;;5069228;28;20284;-73
2023/10/06 02:23:51;;;;;;;13.23;6.33;;;;;;;;;;5070412;28;20251;-72
2023/10/06 02:26:18;;;;;;;10.43;6.80;;;;;;;;;;5069621;28;20205;-73
2023/10/06 02:28:49;;;;;;;11.60;5.60;;;;;;;;;;5070072;28;20212;-73
2023/10/06 02:31:21;;;;;;;11.13;7.07;;;;;;;;;;5069214;28;20217;-73
2023/10/06 02:33:50;;;;;;;10.10;5.83;;;;;;;;;;5070050;28;20295;-73
2023/10/06 02:36:17;;;;;;;11.67;6.77;;;;;;;;;;5069587;28;20201;-73
2023/10/06 02:38:47;;;;;;;7.40;5.77;;;;;;;;;;5071335;28;20287;-74
2023/10/06 02:41:25;;;;;;;9.57;6.00;;;;;;;;;;5073331;28;20633;-73
2023/10/06 02:43:53;;;;;;;12.87;6.23;;;;;;;;;;5073006;28;20201;-73
2023/10/06 02:46:25;;;;;;;11.10;6.43;;;;;;;;;;5072884;28;20209;-73
2023/10/06 02:48:52;;;;;;;9.77;6.80;;;;;;;;;;5073131;28;20303;-73
2023/10/06 02:51:20;;;;;;;11.33;6.23;;;;;;;;;;5072737;28;20205;-73
2023/10/06 02:53:50;;;;;;;7.83;5.47;;;;;;;;;;5072376;28;20213;-73
2023/10/06 02:56:21;;;;;;;13.80;6.53;;;;;;;;;;5063518;28;20211;-73
2023/10/06 02:58:50;;;;;;;14.13;6.70;;;;;;;;;;5061492;28;20288;-73
2023/10/06 03:01:18;;;;;;;8.30;5.80;;;;;;;;;;5065729;28;20212;-73
2023/10/06 03:03:51;;;;;;;9.10;5.70;;;;;;;;;;5062594;28;20300;-73
2023/10/06 03:06:19;;;;;;;12.63;6.47;;;;;;;;;;5067476;28;20215;-73
2023/10/06 03:08:47;;;;;;;9.97;6.40;;;;;;;;;;5068270;28;20320;-73
2023/10/06 03:11:23;;;;;;;10.07;6.23;;;;;;;;;;5048225;28;20236;-73
2023/10/06 03:13:52;;;;;;;9.60;5.83;;;;;;;;;;5069398;28;20582;-73
2023/10/06 03:16:20;;;;;;;15.03;6.63;;;;;;;;;;5071205;28;20216;-73
2023/10/06 03:18:52;;;;;;;9.17;6.00;;;;;;;;;;5057140;28;20200;-73
2023/10/06 03:21:19;;;;;;;12.57;6.10;;;;;;;;;;5070030;28;20193;-73
2023/10/06 03:23:47;;;;;;;15.47;7.07;;;;;;;;;;5061753;28;20207;-73
2023/10/06 03:26:25;;;;;;;11.80;6.23;;;;;;;;;;5053586;28;20244;-73
2023/10/06 03:28:53;;;;;;;10.60;6.10;;;;;;;;;;5053328;28;20201;-73
2023/10/06 03:31:28;;;;;;;22.10;7.20;;;;;;;;;;5065272;28;20218;-73
2023/10/06 03:33:57;;;;;;;12.23;6.60;;;;;;;;;;5051081;28;20637;-72
2023/10/06 03:36:36;;;;;;;13.93;5.60;;;;;;;;;;5072059;28;20205;-72
2023/10/06 03:39:07;;;;;;;10.93;6.33;;;;;;;;;;5072298;28;20228;-74
2023/10/06 03:41:37;;;;;;;15.23;7.07;;;;;;;;;;5072275;28;20243;-73
2023/10/06 03:44:04;;;;;;;12.43;5.97;;;;;;;;;;5072124;28;20205;-74
2023/10/06 03:46:37;;;;;;;12.37;6.60;;;;;;;;;;5071992;28;20328;-74
2023/10/06 03:49:05;;;;;;;9.20;5.47;;;;;;;;;;5071755;28;20224;-74
2023/10/06 03:51:38;;;;;;;10.10;6.43;;;;;;;;;;5071244;28;20209;-74
2023/10/06 03:54:05;;;;;;;12.53;6.53;;;;;;;;;;5069797;28;20209;-74
2023/10/06 03:56:32;;;;;;;13.70;6.63;;;;;;;;;;5060172;28;20197;-73
2023/10/06 03:59:00;;;;;;;11.93;5.83;;;;;;;;;;5071713;28;20651;-74
2023/10/06 04:01:27;;;;;;;11.40;6.97;;;;;;;;;;5072272;28;20248;-73
2023/10/06 04:03:58;;;;;;;7.50;6.20;;;;;;;;;;5071223;28;20761;-73
2023/10/06 04:06:26;;;;;;;9.83;6.37;;;;;;;;;;5070104;28;20982;-73
2023/10/06 04:08:53;;;;;;;8.53;5.30;;;;;;;;;;5071783;28;20197;-73
2023/10/06 04:11:20;;;;;;;10.23;6.70;;;;;;;;;;5070433;28;20233;-74
2023/10/06 04:13:47;;;;;;;13.07;6.30;;;;;;;;;;5059314;28;20575;-74
2023/10/06 04:16:15;;;;;;;10.67;6.40;;;;;;;;;;5071436;28;20205;-73
2023/10/06 04:18:47;;;;;;;11.37;7.50;;;;;;;;;;5071554;28;20616;-74
2023/10/06 04:21:14;;;;;;;13.30;6.63;;;;;;;;;;5070629;28;20208;-74
2023/10/06 04:23:42;;;;;;;12.47;6.70;;;;;;;;;;5071766;28;20201;-74
2023/10/06 04:26:10;;;;;;;14.63;7.00;;;;;;;;;;5071224;28;20208;-75
2023/10/06 04:28:37;;;;;;;12.93;6.60;;;;;;;;;;5062614;28;20209;-74
2023/10/06 04:31:05;;;;;;;12.43;6.97;;;;;;;;;;5071002;28;20244;-74
2023/10/06 04:33:32;;;;;;;8.27;6.10;;;;;;;;;;5070717;28;20194;-74
2023/10/06 04:36:07;;;;;;;10.77;6.23;;;;;;;;;;5070774;28;20220;-74
2023/10/06 04:38:37;;;;;;;9.10;6.43;;;;;;;;;;5063063;28;20205;-74
2023/10/06 04:41:08;;;;;;;14.13;6.50;;;;;;;;;;5069119;28;20201;-75
2023/10/06 04:43:35;;;;;;;12.80;6.60;;;;;;;;;;5069861;28;20223;-75
2023/10/06 04:46:05;;;;;;;14.20;6.20;;;;;;;;;;5068521;28;20564;-76
2023/10/06 04:48:35;;;;;;;12.17;6.70;;;;;;;;;;5069155;28;20317;-75
2023/10/06 04:51:03;;;;;;;8.60;5.57;;;;;;;;;;5068460;28;20734;-75
2023/10/06 04:53:34;;;;;;;13.73;6.83;;;;;;;;;;5069926;28;20204;-75
2023/10/06 04:56:03;;;;;;;18.10;7.47;;;;;;;;;;5069791;28;20201;-75
2023/10/06 04:58:31;;;;;;;14.10;6.37;;;;;;;;;;5070610;28;20212;-76
2023/10/06 05:00:59;;;;;;;12.60;6.33;;;;;;;;;;5070570;28;20679;-75
2023/10/06 05:03:26;;;;;;;11.80;5.40;;;;;;;;;;5056478;28;20229;-75
2023/10/06 05:05:55;;;;;;;12.47;6.97;;;;;;;;;;5071053;28;20204;-75
2023/10/06 05:08:24;;;;;;;11.80;5.67;;;;;;;;;;5070851;28;20292;-75
2023/10/06 05:10:51;;;;;;;8.20;4.90;;;;;;;;;;5070098;28;20303;-75
2023/10/06 05:13:19;;;;;;;9.80;7.07;;;;;;;;;;5070141;28;20205;-75
2023/10/06 05:15:47;;;;;;;7.03;5.40;;;;;;;;;;5070986;28;20208;-72
2023/10/06 05:18:15;;;;;;;7.80;5.43;;;;;;;;;;5070318;28;20676;-72
2023/10/06 05:20:43;;;;;;;9.03;5.70;;;;;;;;;;5070837;28;20684;-73
2023/10/06 05:23:11;;;;;;;12.37;6.10;;;;;;;;;;5069675;28;20262;-73
2023/10/06 05:25:38;;;;;;;10.93;6.13;;;;;;;;;;5070442;28;20675;-73
2023/10/06 05:28:07;;;;;;;9.87;6.30;;;;;;;;;;5070187;28;20262;-72
2023/10/06 05:30:36;;;;;;;11.10;6.23;;;;;;;;;;5070445;28;20225;-73
2023/10/06 05:33:05;;;;;;;10.77;6.03;;;;;;;;;;5070819;28;20197;-73
2023/10/06 05:35:36;;;;;;;9.23;6.67;;;;;;;;;;5070134;28;20267;-73
2023/10/06 05:38:04;;;;;;;15.97;7.43;;;;;;;;;;5069894;28;20692;-73
2023/10/06 05:40:31;;;;;;;30.67;9.20;;;;;;;;;;5070856;28;20256;-73
2023/10/06 05:42:57;;;;;;;15.03;7.37;;;;;;;;;;5070018;28;20252;-73
2023/10/06 05:45:24;;;;;;;14.23;6.43;;;;;;;;;;5070440;28;20637;-73
2023/10/06 05:47:54;;;;;;;8.67;5.87;;;;;;;;;;5070202;28;20197;-72
2023/10/06 05:50:28;;;;;;;11.03;6.47;;;;;;;;;;5070308;28;20725;-72
2023/10/06 05:52:59;;;;;;;11.00;6.73;;;;;;;;;;5070233;28;20212;-73
2023/10/06 05:55:33;;;;;;;9.10;6.10;;;;;;;;;;5070182;28;20282;-73
2023/10/06 05:58:01;;;;;;;11.27;6.63;;;;;;;;;;5069766;28;20260;-73
2023/10/06 06:00:30;;;;;;;9.57;6.53;;;;;;;;;;5070793;28;20207;-73
2023/10/06 06:02:59;;;;;;;14.80;7.50;;;;;;;;;;5069805;28;20747;-73
2023/10/06 06:05:29;;;;;;;14.00;7.80;;;;;;;;;;5070054;28;20298;-73
2023/10/06 06:07:59;;;;;;;10.23;7.00;;;;;;;;;;5069511;28;20206;-73
2023/10/06 06:10:28;;;;;;;14.10;7.37;;;;;;;;;;5070328;28;20237;-73
2023/10/06 06:12:56;;;;;;;13.83;7.57;;;;;;;;;;5069754;28;20249;-73
2023/10/06 06:15:23;;;;;;;9.33;7.03;;;;;;;;;;5073566;28;20208;-73
2023/10/06 06:17:52;;;;;;;8.23;6.73;;;;;;;;;;5073321;28;21301;-73
2023/10/06 06:20:21;;;;;;;14.00;7.43;;;;;;;;;;5074005;28;20215;-73
2023/10/06 06:22:55;;;;;;;8.97;6.53;;;;;;;;;;5073284;28;20202;-73
2023/10/06 06:25:22;;;;;;;12.73;6.90;;;;;;;;;;5073696;28;20201;-73
2023/10/06 06:27:49;;;;;;;9.77;6.93;;;;;;;;;;5072834;28;20225;-73
2023/10/06 06:30:18;;;;;;;15.53;6.83;;;;;;;;;;5073773;28;20223;-73
2023/10/06 06:32:48;;;;;;;12.97;7.13;;;;;;;;;;5073016;28;20196;-73
2023/10/06 06:35:16;;;;;;;14.07;7.40;;;;;;;;;;5073147;28;20197;-73
2023/10/06 06:37:42;;;;;;;9.53;7.30;;;;;;;;;;5073282;28;20201;-73
2023/10/06 06:40:13;;;;;;;11.73;7.63;;;;;;;;;;5072869;28;20688;-73
2023/10/06 06:42:40;;;;;;;19.50;7.77;;;;;;;;;;5073104;28;20205;-74
2023/10/06 06:45:08;;;;;;;18.13;6.83;;;;;;;;;;5073168;28;20209;-73
2023/10/06 06:47:36;;;;;;;9.77;7.23;;;;;;;;;;5072943;28;20223;-73
2023/10/06 06:50:03;;;;;;;11.43;6.80;;;;;;;;;;5073243;28;20231;-73
2023/10/06 06:52:30;;;;;;;7.97;7.17;;;;;;;;;;5073104;28;20207;-73
2023/10/06 06:54:56;;;;;;;13.30;6.87;;;;;;;;;;5073425;28;20201;-73
2023/10/06 06:57:24;;;;;;;8.80;7.00;;;;;;;;;;5072918;28;20640;-73
2023/10/06 06:59:52;;;;;;;12.17;6.70;;;;;;;;;;5072644;28;20201;-73
2023/10/06 07:02:20;;;;;;;11.77;7.90;;;;;;;;;;5073406;28;20205;-73
2023/10/06 07:04:47;;;;;;;11.00;7.33;;;;;;;;;;5059648;28;20205;-73
2023/10/06 07:07:14;;;;;;;15.03;7.83;;;;;;;;;;5072764;28;20291;-73
2023/10/06 07:09:41;;;;;;;14.90;6.87;;;;;;;;;;5072857;28;20283;-73
2023/10/06 07:12:07;;;;;;;12.83;6.83;;;;;;;;;;5072885;28;20228;-74
2023/10/06 07:14:36;;;;;;;14.13;6.50;;;;;;;;;;5072947;28;20205;-73
2023/10/06 07:17:02;;;;;;;11.33;6.67;;;;;;;;;;5072591;28;20575;-73
2023/10/06 07:19:30;;;;;;;14.80;7.53;;;;;;;;;;5072582;28;20201;-73
2023/10/06 07:21:56;;;;;;;8.07;6.00;;;;;;;;;;5073344;28;20197;-73
2023/10/06 07:24:24;;;;;;;9.90;6.57;;;;;;;;;;5071571;28;20576;-73
2023/10/06 07:26:50;;;;;;;8.23;7.13;;;;;;;;;;5071812;28;20208;-73
2023/10/06 07:29:17;;;;;;;14.77;6.87;;;;;;;;;;5073030;28;20254;-73
2023/10/06 07:31:48;;;;;;;11.37;6.73;;;;;;;;;;5072291;28;20225;-73
2023/10/06 07:34:15;;;;;;;11.80;6.57;;;;;;;;;;5072798;28;20204;-73
2023/10/06 07:36:42;;;;;;;11.07;6.40;;;;;;;;;;5072335;28;20256;-74
2023/10/06 07:39:15;;;;;;;10.03;7.10;;;;;;;;;;5072204;28;20255;-74
2023/10/06 07:41:43;;;;;;;13.53;8.00;;;;;;;;;;5071858;28;20208;-73
2023/10/06 07:44:11;;;;;;;11.60;6.93;;;;;;;;;;5072224;28;20282;-73
2023/10/06 07:46:38;;;;;;;9.20;6.80;;;;;;;;;;5072036;28;20213;-73
2023/10/06 07:49:06;;;;;;;12.37;6.43;;;;;;;;;;5065868;28;20233;-74
2023/10/06 07:51:33;;;;;;;9.77;6.90;;;;;;;;;;5065000;28;20228;-74
2023/10/06 07:54:00;;;;;;;10.03;6.10;;;;;;;;;;5045551;28;20197;-74
2023/10/06 07:56:27;;;;;;;9.63;6.97;;;;;;;;;;5071430;28;20687;-74
2023/10/06 07:58:54;;;;;;;12.73;8.30;;;;;;;;;;5071858;28;20315;-73
2023/10/06 08:01:21;;;;;;;12.73;7.27;;;;;;;;;;5071031;28;20589;-74
2023/10/06 08:03:47;;;;;;;11.07;6.83;;;;;;;;;;5072040;28;20205;-74
2023/10/06 08:06:16;;;;;;;9.53;7.70;;;;;;;;;;5070959;28;20201;-73
2023/10/06 08:08:42;;;;;;;14.20;7.03;;;;;;;;;;5072014;28;20201;-74
2023/10/06 08:11:10;;;;;;;9.83;6.50;;;;;;;;;;5070898;28;20225;-73
2023/10/06 08:13:38;;;;;;;12.73;7.60;;;;;;;;;;5071823;28;20697;-73
2023/10/06 08:16:06;;;;;;;13.43;7.87;;;;;;;;;;5071106;28;20254;-73
2023/10/06 08:18:33;;;;;;;15.73;6.97;;;;;;;;;;5071661;28;20255;-73
2023/10/06 08:21:01;;;;;;;11.50;7.53;;;;;;;;;;5071996;28;20287;-73
2023/10/06 08:23:30;;;;;;;11.03;7.17;;;;;;;;;;5071213;28;20211;-74
2023/10/06 08:25:58;;;;;;;13.73;7.37;;;;;;;;;;5070940;28;20215;-73
2023/10/06 08:28:26;;;;;;;17.70;7.17;;;;;;;;;;5071449;28;20212;-74
2023/10/06 08:30:52;;;;;;;13.30;7.27;;;;;;;;;;5071392;28;20221;-74
2023/10/06 08:33:19;;;;;;;9.50;6.50;;;;;;;;;;5071105;28;20209;-74
2023/10/06 08:35:46;;;;;;;9.80;6.70;;;;;;;;;;5070361;28;20205;-74
2023/10/06 08:38:14;;;;;;;18.00;7.83;;;;;;;;;;5071418;28;20201;-74
2023/10/06 08:40:43;;;;;;;13.27;7.03;;;;;;;;;;5070852;28;20207;-74
2023/10/06 08:43:10;;;;;;;9.70;7.27;;;;;;;;;;5070883;28;20696;-73
2023/10/06 08:45:41;;;;;;;11.37;7.33;;;;;;;;;;5070669;28;20711;-74
2023/10/06 08:48:10;;;;;;;8.77;6.77;;;;;;;;;;5070739;28;20655;-74
2023/10/06 08:50:38;;;;;;;7.87;6.57;;;;;;;;;;5070849;28;20283;-74
2023/10/06 08:53:09;;;;;;;10.77;7.37;;;;;;;;;;5071121;28;20256;-73
2023/10/06 08:55:37;;;;;;;8.43;7.53;;;;;;;;;;5071147;28;20284;-73
2023/10/06 08:58:07;;;;;;;8.00;6.87;;;;;;;;;;5070964;28;20280;-73
2023/10/06 09:00:36;;;;;;;8.03;6.77;;;;;;;;;;5070833;28;20704;-74
2023/10/06 09:03:07;;;;;;;13.50;8.20;;;;;;;;;;5070712;28;20204;-74
2023/10/06 09:05:36;;;;;;;12.67;7.73;;;;;;;;;;5070524;28;20260;-74
2023/10/06 09:08:05;;;;;;;10.17;7.67;;;;;;;;;;5068387;28;20845;-73
2023/10/06 09:10:32;;;;;;;18.77;8.93;;;;;;;;;;5060580;28;20197;-73
2023/10/06 09:13:01;;;;;;;9.43;7.70;;;;;;;;;;5070141;28;20215;-73
2023/10/06 09:15:29;;;;;;;12.20;9.07;;;;;;;;;;5070901;28;20232;-74
2023/10/06 09:17:57;;;;;;;13.90;7.97;;;;;;;;;;5069846;28;20288;-73
2023/10/06 09:20:30;;;;;;;9.47;7.77;;;;;;;;;;5070966;28;20209;-73
2023/10/06 09:22:58;;;;;;;10.10;8.07;;;;;;;;;;5070445;28;20203;-73
2023/10/06 09:25:26;;;;;;;9.43;7.57;;;;;;;;;;5070509;28;20209;-73
2023/10/06 09:28:03;;;;;;;15.53;8.73;;;;;;;;;;5069963;28;20208;-74
2023/10/06 09:30:31;;;;;;;9.83;7.63;;;;;;;;;;5070112;28;20204;-74
2023/10/06 09:33:05;;;;;;;9.67;7.87;;;;;;;;;;5070227;28;20252;-73
2023/10/06 09:35:32;;;;;;;17.40;7.87;;;;;;;;;;5070187;28;20232;-73
2023/10/06 09:38:13;;;;;;;11.03;9.37;;;;;;;;;;5070147;28;20201;-73
2023/10/06 09:40:44;;;;;;;8.77;7.57;;;;;;;;;;5070590;28;20200;-73
2023/10/06 09:43:13;;;;;;;12.03;8.10;;;;;;;;;;5070617;28;20205;-73
2023/10/06 09:45:42;;;;;;;10.10;8.23;;;;;;;;;;5070206;28;20224;-73
2023/10/06 09:48:13;;;;;;;8.67;7.87;;;;;;;;;;5071065;28;20292;-73
2023/10/06 09:50:43;;;;;;;9.30;7.70;;;;;;;;;;5074886;28;20233;-73
2023/10/06 09:53:12;;;;;;;12.00;7.57;;;;;;;;;;5074018;28;20229;-73
2023/10/06 09:55:40;;;;;;;14.47;8.40;;;;;;;;;;5048804;28;20197;-73
2023/10/06 09:58:07;;;;;;;12.43;8.23;;;;;;;;;;5073797;28;20201;-73
2023/10/06 10:00:38;;;;;;;10.63;8.20;;;;;;;;;;5074286;28;20197;-73
2023/10/06 10:03:08;;;;;;;10.77;7.70;;;;;;;;;;5074063;28;20583;-73
2023/10/06 10:05:38;;;;;;;16.03;7.90;;;;;;;;;;5073694;28;20211;-73
2023/10/06 10:08:05;;;;;;;12.70;8.50;;;;;;;;;;5074071;28;20212;-73
2023/10/06 10:10:32;;;;;;;9.07;7.00;;;;;;;;;;5073946;28;20208;-73
2023/10/06 10:13:32;;;;;;;10.73;8.20;;;;;;;;;;5074174;28;20217;-73
2023/10/06 10:16:18;;;;;;;11.07;7.30;;;;;;;;;;5074262;28;20232;-73
2023/10/06 10:18:50;;;;;;;9.40;7.93;;;;;;;;;;5074045;28;20209;-74
2023/10/06 10:21:18;;;;;;;8.53;7.50;;;;;;;;;;5073366;28;20197;-74
2023/10/06 10:23:45;;;;;;;8.03;7.17;;;;;;;;;;5073764;28;20786;-73
2023/10/06 10:26:18;;;;;;;9.67;7.17;;;;;;;;;;5073906;28;20207;-73
2023/10/06 10:28:45;;;;;;;10.37;7.23;;;;;;;;;;5073850;28;20197;-74
2023/10/06 10:31:17;;;;;;;7.70;6.87;;;;;;;;;;5072990;28;20605;-73
2023/10/06 10:33:46;;;;;;;14.73;8.77;;;;;;;;;;5073520;28;20205;-73
2023/10/06 10:36:24;;;;;;;12.47;8.50;;;;;;;;;;5073411;28;20197;-73
2023/10/06 10:39:09;;;;;;;8.87;7.40;;;;;;;;;;5073039;28;20207;-74
2023/10/06 10:41:37;;;;;;;15.37;7.53;;;;;;;;;;5072890;28;20209;-73
2023/10/06 10:44:08;;;;;;;11.03;8.07;;;;;;;;;;5072644;28;20197;-73
2023/10/06 10:46:42;;;;;;;7.00;6.33;;;;;;;;;;5073183;28;20755;-73
2023/10/06 10:49:10;;;;;;;7.67;6.57;;;;;;;;;;5059782;28;20595;-73
2023/10/06 10:51:53;;;;;;;12.00;7.57;;;;;;;;;;5072954;28;20320;-73
2023/10/06 10:54:22;;;;;;;7.47;6.77;;;;;;;;;;5073680;28;20284;-73
2023/10/06 10:56:51;;;;;;;7.53;6.20;;;;;;;;;;5072784;28;20293;-73
2023/10/06 10:59:18;;;;;;;8.43;7.63;;;;;;;;;;5073497;28;20201;-73
2023/10/06 11:01:47;;;;;;;10.70;7.83;;;;;;;;;;5072506;28;20211;-73
2023/10/06 11:04:31;;;;;;;8.90;6.90;;;;;;;;;;5073095;28;20205;-73
2023/10/06 11:07:09;;;;;;;7.40;6.60;;;;;;;;;;5073141;28;20201;-73
2023/10/06 11:09:41;;;;;;;10.23;6.77;;;;;;;;;;5072902;28;20211;-73
2023/10/06 11:12:25;;;;;;;8.63;7.03;;;;;;;;;;5072850;28;20221;-73
2023/10/06 11:14:52;;;;;;;11.97;7.20;;;;;;;;;;5073095;28;20205;-73
2023/10/06 11:17:23;;;;;;;13.17;8.53;;;;;;;;;;5073021;28;20201;-73
2023/10/06 11:20:00;;;;;;;10.93;7.77;;;;;;;;;;5072278;28;20240;-73
2023/10/06 11:22:28;;;;;;;8.20;7.07;;;;;;;;;;5072586;28;20687;-74
2023/10/06 11:24:57;;;;;;;12.63;7.97;;;;;;;;;;5072674;28;20717;-73
2023/10/06 11:27:28;;;;;;;9.87;7.80;;;;;;;;;;5072453;28;20201;-73
2023/10/06 11:29:57;;;;;;;10.73;7.47;;;;;;;;;;5072632;28;20598;-74
2023/10/06 11:32:26;;;;;;;8.93;7.90;;;;;;;;;;5071903;28;20232;-74
2023/10/06 11:34:52;;;;;;;10.63;8.10;;;;;;;;;;5072607;28;20259;-73
2023/10/06 11:37:22;;;;;;;11.73;8.40;;;;;;;;;;5071637;28;20197;-74
2023/10/06 11:39:52;;;;;;;11.80;8.60;;;;;;;;;;5072565;28;20201;-74
2023/10/06 11:42:30;;;;;;;12.53;7.57;;;;;;;;;;5071883;28;20201;-74
2023/10/06 11:44:59;;;;;;;11.97;8.00;;;;;;;;;;5072681;28;20275;-73
2023/10/06 11:47:41;;;;;;;12.03;8.30;;;;;;;;;;5071962;28;20201;-73
2023/10/06 11:50:09;;;;;;;9.33;7.67;;;;;;;;;;5070821;28;20228;-74
2023/10/06 11:52:35;;;;;;;10.23;7.40;;;;;;;;;;5072236;28;20264;-73
2023/10/06 11:55:14;;;;;;;8.97;8.07;;;;;;;;;;5071434;28;20658;-73
2023/10/06 11:57:46;;;;;;;10.30;8.00;;;;;;;;;;5072086;28;20209;-73
2023/10/06 12:00:17;;;;;;;7.67;6.87;;;;;;;;;;5071263;28;20592;-73
2023/10/06 12:02:49;;;;;;;10.20;6.93;;;;;;;;;;5072197;28;20211;-73
2023/10/06 12:05:17;;;;;;;8.97;7.87;;;;;;;;;;5059255;28;20262;-74
2023/10/06 12:07:44;;;;;;;11.50;7.43;;;;;;;;;;5071359;28;20284;-74
2023/10/06 12:10:12;;;;;;;11.20;8.17;;;;;;;;;;5071602;28;20205;-74
2023/10/06 12:12:41;;;;;;;8.33;7.03;;;;;;;;;;5070139;28;20228;-73
2023/10/06 12:15:09;;;;;;;9.13;7.80;;;;;;;;;;5059673;28;20217;-73
2023/10/06 12:17:38;;;;;;;10.97;8.27;;;;;;;;;;5071308;28;20262;-74
2023/10/06 12:20:07;;;;;;;11.00;7.93;;;;;;;;;;5071635;28;20201;-74
2023/10/06 12:22:34;;;;;;;12.03;8.77;;;;;;;;;;5071362;28;20227;-73
2023/10/06 12:25:01;;;;;;;8.83;7.83;;;;;;;;;;5071654;28;20208;-73
2023/10/06 12:27:30;;;;;;;9.07;7.60;;;;;;;;;;5071153;28;20205;-73
2023/10/06 12:29:57;;;;;;;9.90;8.37;;;;;;;;;;5071304;28;20193;-74
2023/10/06 12:32:24;;;;;;;9.03;7.23;;;;;;;;;;5070811;28;20224;-74
2023/10/06 12:34:50;;;;;;;11.53;7.70;;;;;;;;;;5070826;28;20663;-73
2023/10/06 12:37:17;;;;;;;14.80;7.20;;;;;;;;;;5070871;28;20569;-73
2023/10/06 12:39:45;;;;;;;8.90;8.10;;;;;;;;;;5071379;28;20206;-73
2023/10/06 12:42:16;;;;;;;10.80;8.63;;;;;;;;;;5071106;28;20262;-74
2023/10/06 12:44:44;;;;;;;11.43;8.23;;;;;;;;;;5071530;28;20590;-73
2023/10/06 12:47:11;;;;;;;10.00;7.93;;;;;;;;;;5070351;28;20209;-73
2023/10/06 12:49:43;;;;;;;8.97;7.93;;;;;;;;;;5060130;28;20234;-73
2023/10/06 12:52:10;;;;;;;11.07;7.97;;;;;;;;;;5069419;28;20234;-73
2023/10/06 12:54:36;;;;;;;12.63;8.87;;;;;;;;;;5070621;28;20209;-73
2023/10/06 12:57:04;;;;;;;10.83;7.93;;;;;;;;;;5070346;28;20204;-73
2023/10/06 12:59:32;;;;;;;11.37;7.80;;;;;;;;;;5070923;28;20287;-73
2023/10/06 13:02:03;;;;;;;8.53;7.50;;;;;;;;;;5070715;28;20284;-73
2023/10/06 13:04:30;;;;;;;11.13;8.10;;;;;;;;;;5070231;28;20202;-73
2023/10/06 13:06:58;;;;;;;9.10;8.13;;;;;;;;;;5070920;28;20643;-73
2023/10/06 13:09:27;;;;;;;9.03;8.13;;;;;;;;;;5070858;28;20201;-73
2023/10/06 13:11:54;;;;;;;12.30;7.73;;;;;;;;;;5070362;28;20205;-76
2023/10/06 13:14:21;;;;;;;10.40;8.80;;;;;;;;;;5069976;28;20197;-76
2023/10/06 13:16:48;;;;;;;8.57;7.67;;;;;;;;;;5058756;28;20225;-76
2023/10/06 13:19:16;;;;;;;9.13;8.07;;;;;;;;;;5070387;28;20212;-76
2023/10/06 13:21:43;;;;;;;8.27;7.47;;;;;;;;;;5070599;28;20207;-75
2023/10/06 13:24:12;;;;;;;10.27;8.07;;;;;;;;;;5069134;28;20699;-75
2023/10/06 13:26:42;;;;;;;8.40;7.27;;;;;;;;;;5070516;28;20648;-75
2023/10/06 13:29:09;;;;;;;10.17;8.53;;;;;;;;;;5070091;28;20205;-75
2023/10/06 13:31:36;;;;;;;9.67;8.40;;;;;;;;;;5070430;28;20292;-75
2023/10/06 13:34:03;;;;;;;16.57;8.63;;;;;;;;;;5069665;28;20282;-75
2023/10/06 13:36:32;;;;;;;9.57;8.57;;;;;;;;;;5070413;28;20200;-75
2023/10/06 13:38:58;;;;;;;10.57;8.90;;;;;;;;;;5070413;28;20201;-75
2023/10/06 13:41:26;;;;;;;9.30;8.40;;;;;;;;;;5070477;28;20208;-75
2023/10/06 13:43:54;;;;;;;12.57;8.43;;;;;;;;;;5069843;28;20213;-75
2023/10/06 13:46:21;;;;;;;9.53;8.57;;;;;;;;;;5070083;28;20255;-75
2023/10/06 13:48:47;;;;;;;11.43;8.87;;;;;;;;;;5070040;28;20217;-75
2023/10/06 13:51:15;;;;;;;7.93;7.17;;;;;;;;;;5049760;28;20205;-74
2023/10/06 13:53:43;;;;;;;10.10;8.37;;;;;;;;;;5066013;28;20231;-74
2023/10/06 13:56:10;;;;;;;9.60;8.27;;;;;;;;;;5060918;28;20209;-75
2023/10/06 13:58:37;;;;;;;13.30;8.77;;;;;;;;;;5063559;28;20261;-74
2023/10/06 14:01:04;;;;;;;10.10;8.87;;;;;;;;;;5068734;28;20205;-74
2023/10/06 14:03:31;;;;;;;12.57;8.07;;;;;;;;;;5070039;28;20292;-76
2023/10/06 14:05:57;;;;;;;10.03;9.00;;;;;;;;;;5070126;28;20193;-76
2023/10/06 14:08:25;;;;;;;11.03;9.17;;;;;;;;;;5069749;28;20201;-76
2023/10/06 14:10:53;;;;;;;10.47;8.60;;;;;;;;;;5070188;28;20232;-75
2023/10/06 14:13:24;;;;;;;14.50;8.77;;;;;;;;;;5067802;28;20225;-76
2023/10/06 14:15:54;;;;;;;10.87;8.73;;;;;;;;;;5058307;28;20197;-75
2023/10/06 14:18:24;;;;;;;10.37;8.90;;;;;;;;;;5066656;28;20202;-75
2023/10/06 14:20:53;;;;;;;9.10;7.00;;;;;;;;;;5070151;28;20280;-75
2023/10/06 14:23:23;;;;;;;9.80;8.80;;;;;;;;;;5068328;28;20209;-75
2023/10/06 14:25:52;;;;;;;9.50;8.07;;;;;;;;;;5069098;28;20201;-76
2023/10/06 14:28:22;;;;;;;12.60;7.93;;;;;;;;;;5068810;28;20201;-75
2023/10/06 14:30:51;;;;;;;11.30;8.50;;;;;;;;;;5067894;28;20209;-75
2023/10/06 14:33:22;;;;;;;8.77;7.87;;;;;;;;;;5069184;28;20232;-75
2023/10/06 14:36:20;;;;;;;8.93;8.03;;;;;;;;;;5072458;28;20201;-75
2023/10/06 14:47:01;;;;;;;10.97;8.07;;;;;;;;;;5071766;28;20251;-75
2023/10/06 14:49:28;;;;;;;8.10;7.03;;;;;;;;;;5072309;28;20235;-75
2023/10/06 14:51:56;;;;;;;13.23;7.80;;;;;;;;;;5073213;28;20266;-75
2023/10/06 14:54:25;;;;;;;8.63;7.73;;;;;;;;;;5073457;28;20415;-75